Weather History for Georgetown, SC

Change the Weather History Date:

Wednesday, March 6, 2013

  Actual Average Record
Temperature  
Mean Temperature 50 °F -  
Max Temperature 59 °F 68 °F 69 °F (2011)
Min Temperature 41 °F 45 °F 33 °F (2012)
Degree Days  
Heating Degree Days 15    
Moisture  
Dew Point 32 °F    
Average Humidity 56    
Maximum Humidity 100    
Minimum Humidity 40    
Precipitation  
Precipitation 0.00 in - - ()
Sea Level Pressure  
Sea Level Pressure 29.84 in    
Wind  
Wind Speed 16 mph (WNW)    
Max Wind Speed 26 mph    
Max Gust Speed 36 mph    
Visibility 10 miles    
Events      
Averages and records for this station are not official NWS values.
T = Trace of Precipitation, MM = Missing Value Source: NWS Daily Summary

Daily Weather History Graph

Daily Weather History Graph

Search for Another Location

Airport:

Trip Planner

Search our weather history database for the weather conditions in past years. The results will help you decide how hot, cold, wet, or windy it might be!

Date:

Astronomy

Mar. 06, 2013 Rise Set
Actual Time 6:38 AM EST 6:18 PM EST
Civil Twilight 6:14 AM EST 6:43 PM EST
Nautical Twilight 5:45 AM EST 7:11 PM EST
Astronomical Twilight 5:16 AM EST 7:40 PM EST
Moon 2:34 AM EST (3/6) 1:10 PM EST (3/6)
Length of Visible Light 12h 29m
Length of Day
11h 39m
Waning Crescent, 30% of the Moon is Illuminated
Mar 6
Waning Crescent
Mar 11
New
Mar 19
First Quarter
Mar 27
Full
Apr 3
Last Quarter

Hourly Weather History & Observations

Time (EST) Temp. Windchill Dew Point Humidity Pressure Visibility Wind Dir Wind Speed Gust Speed Precip Events Conditions
12:15 AM 59.0 °F - 59.0 °F 100% 29.69 in 10.0 mi SW 10.4 mph 16.1 mph N/A   Overcast
12:35 AM 57.2 °F - 55.4 °F 94% 29.68 in 10.0 mi WSW 15.0 mph 21.9 mph N/A   Scattered Clouds
12:55 AM 57.2 °F - 55.4 °F 94% 29.68 in 10.0 mi SW 15.0 mph 20.7 mph N/A   Clear
1:15 AM 55.4 °F - 55.4 °F 100% 29.68 in 10.0 mi WSW 16.1 mph 20.7 mph N/A   Scattered Clouds
1:55 AM 55.4 °F - 53.6 °F 94% 29.67 in 10.0 mi WSW 13.8 mph 21.9 mph N/A   Scattered Clouds
2:15 AM 55.4 °F - 51.8 °F 88% 29.66 in 10.0 mi WSW 13.8 mph - N/A   Scattered Clouds
2:35 AM 53.6 °F - 42.8 °F 67% 29.68 in 10.0 mi West 25.3 mph 34.5 mph N/A   Scattered Clouds
2:55 AM 51.8 °F - 39.2 °F 62% 29.69 in 10.0 mi West 17.3 mph 31.1 mph N/A   Mostly Cloudy
3:15 AM 50.0 °F - 37.4 °F 62% 29.70 in 10.0 mi West 18.4 mph 28.8 mph N/A   Mostly Cloudy
3:35 AM 48.2 °F - 37.4 °F 66% 29.70 in 10.0 mi WSW 23.0 mph 34.5 mph N/A   Scattered Clouds
3:55 AM 46.4 °F 39.8 °F 35.6 °F 66% 29.71 in 10.0 mi West 16.1 mph 31.1 mph N/A   Clear
4:15 AM 44.6 °F 35.9 °F 33.8 °F 66% 29.73 in 10.0 mi West 23.0 mph 35.7 mph N/A   Clear
4:35 AM 44.6 °F 36.9 °F 32.0 °F 61% 29.74 in 10.0 mi West 18.4 mph 29.9 mph N/A   Scattered Clouds
4:55 AM 42.8 °F 34.8 °F 32.0 °F 66% 29.75 in 10.0 mi West 17.3 mph 28.8 mph N/A   Scattered Clouds
5:15 AM 42.8 °F 34.0 °F 32.0 °F 66% 29.76 in 10.0 mi West 20.7 mph 32.2 mph N/A   Clear
5:35 AM 41.0 °F 31.9 °F 30.2 °F 65% 29.76 in 10.0 mi West 19.6 mph 27.6 mph N/A   Scattered Clouds
5:55 AM 41.0 °F 33.1 °F 30.2 °F 65% 29.77 in 10.0 mi West 15.0 mph 25.3 mph N/A   Scattered Clouds
6:55 AM 41.0 °F 34.3 °F 28.4 °F 61% 29.78 in 10.0 mi West 11.5 mph 23.0 mph N/A   Clear
7:15 AM 41.0 °F 33.9 °F 28.4 °F 61% 29.79 in 10.0 mi West 12.7 mph 20.7 mph N/A   Clear
7:35 AM 41.0 °F 32.8 °F 28.4 °F 61% 29.80 in 10.0 mi West 16.1 mph 27.6 mph N/A   Clear
7:55 AM 42.8 °F 35.8 °F 30.2 °F 61% 29.80 in 10.0 mi West 13.8 mph 23.0 mph N/A   Clear
8:15 AM 42.8 °F 34.8 °F 30.2 °F 61% 29.81 in 10.0 mi West 17.3 mph 24.2 mph N/A   Clear
8:35 AM 42.8 °F 33.8 °F 28.4 °F 57% 29.81 in 10.0 mi WNW 21.9 mph 29.9 mph N/A   Clear
8:55 AM 44.6 °F 35.3 °F 28.4 °F 53% 29.82 in 10.0 mi West 26.5 mph 32.2 mph N/A   Scattered Clouds
9:15 AM 44.6 °F 35.5 °F 28.4 °F 53% 29.83 in 10.0 mi West 25.3 mph 33.4 mph N/A   Scattered Clouds
9:35 AM 44.6 °F 36.4 °F 26.6 °F 49% 29.82 in 10.0 mi West 20.7 mph 33.4 mph N/A   Scattered Clouds
9:55 AM 44.6 °F 36.4 °F 26.6 °F 49% 29.82 in 10.0 mi West 20.7 mph 31.1 mph N/A   Clear
10:15 AM 44.6 °F 36.6 °F 26.6 °F 49% 29.83 in 10.0 mi WNW 19.6 mph 33.4 mph N/A   Clear
10:35 AM 46.4 °F 38.7 °F 26.6 °F 46% 29.83 in 10.0 mi WNW 20.7 mph 29.9 mph N/A   Clear
10:55 AM 46.4 °F 38.7 °F 26.6 °F 46% 29.84 in 10.0 mi WNW 20.7 mph 31.1 mph N/A   Clear
11:15 AM 46.4 °F 38.3 °F 26.6 °F 46% 29.83 in 10.0 mi WNW 23.0 mph 32.2 mph N/A   Clear
11:35 AM 48.2 °F - 26.6 °F 43% 29.83 in 10.0 mi West 20.7 mph 29.9 mph N/A   Clear
11:55 AM 48.2 °F - 26.6 °F 43% 29.83 in 10.0 mi WNW 17.3 mph 31.1 mph N/A   Clear
12:15 PM 50.0 °F - 26.6 °F 40% 29.82 in 10.0 mi WNW 21.9 mph 32.2 mph N/A   Clear
12:35 PM 50.0 °F - 26.6 °F 40% 29.82 in 10.0 mi West 19.6 mph 31.1 mph N/A   Clear
12:55 PM 50.0 °F - 26.6 °F 40% 29.81 in 10.0 mi WNW 17.3 mph 34.5 mph N/A   Clear
1:15 PM 50.0 °F - 26.6 °F 40% 29.81 in 10.0 mi West 23.0 mph 34.5 mph N/A   Clear
1:35 PM 50.0 °F - 28.4 °F 43% 29.80 in 10.0 mi WNW 20.7 mph 34.5 mph N/A   Clear
1:55 PM 51.8 °F - 28.4 °F 41% 29.80 in 10.0 mi West 19.6 mph 27.6 mph N/A   Clear
2:15 PM 51.8 °F - 28.4 °F 41% 29.80 in 10.0 mi WNW 17.3 mph 26.5 mph N/A   Clear
2:35 PM 51.8 °F - 28.4 °F 41% 29.81 in 10.0 mi NW 18.4 mph 27.6 mph N/A   Clear
2:55 PM 51.8 °F - 28.4 °F 41% 29.82 in 10.0 mi West 26.5 mph 35.7 mph N/A   Clear
3:15 PM 51.8 °F - 28.4 °F 41% 29.82 in 10.0 mi WNW 20.7 mph 28.8 mph N/A   Clear
3:35 PM 51.8 °F - 28.4 °F 41% 29.83 in 10.0 mi West 24.2 mph 32.2 mph N/A   Clear
3:55 PM 51.8 °F - 28.4 °F 41% 29.82 in 10.0 mi WNW 21.9 mph 33.4 mph N/A   Clear
4:15 PM 51.8 °F - 30.2 °F 44% 29.83 in 10.0 mi WNW 15.0 mph 31.1 mph N/A   Clear
4:35 PM 51.8 °F - 28.4 °F 41% 29.84 in 10.0 mi WNW 17.3 mph 32.2 mph N/A   Clear
4:55 PM 51.8 °F - 28.4 °F 41% 29.85 in 10.0 mi WNW 12.7 mph 24.2 mph N/A   Clear
5:15 PM 51.8 °F - 30.2 °F 44% 29.86 in 10.0 mi WNW 12.7 mph 23.0 mph N/A   Clear
5:35 PM 51.8 °F - 30.2 °F 44% 29.88 in 10.0 mi WNW 12.7 mph 24.2 mph N/A   Clear
5:55 PM 51.8 °F - 28.4 °F 41% 29.89 in 10.0 mi WNW 18.4 mph 24.2 mph N/A   Clear
6:15 PM 50.0 °F - 28.4 °F 43% 29.91 in 10.0 mi WNW 8.1 mph - N/A   Clear
6:35 PM 50.0 °F - 28.4 °F 43% 29.92 in 10.0 mi NW 11.5 mph 21.9 mph N/A   Clear
6:55 PM 50.0 °F - 30.2 °F 47% 29.94 in 10.0 mi NW 10.4 mph 18.4 mph N/A   Clear
7:15 PM 48.2 °F - 30.2 °F 50% 29.96 in 10.0 mi NW 9.2 mph - N/A   Clear
7:35 PM 48.2 °F - 30.2 °F 50% 29.97 in 10.0 mi NW 11.5 mph 17.3 mph N/A   Clear
7:55 PM 46.4 °F 41.9 °F 30.2 °F 53% 29.98 in 10.0 mi NW 9.2 mph 16.1 mph N/A   Clear
8:15 PM 46.4 °F 41.9 °F 30.2 °F 53% 30.00 in 10.0 mi NW 9.2 mph - N/A   Clear
8:35 PM 46.4 °F 41.5 °F 30.2 °F 53% 30.01 in 10.0 mi NW 10.4 mph 19.6 mph N/A   Clear
8:55 PM 46.4 °F 41.9 °F 30.2 °F 53% 30.02 in 10.0 mi NW 9.2 mph 17.3 mph N/A   Clear
9:15 PM 44.6 °F 40.2 °F 30.2 °F 57% 30.03 in 10.0 mi NW 8.1 mph 16.1 mph N/A   Clear
9:35 PM 44.6 °F 39.2 °F 30.2 °F 57% 30.03 in 10.0 mi NW 10.4 mph 16.1 mph N/A   Clear
9:55 PM 44.6 °F 39.7 °F 30.2 °F 57% 30.03 in 10.0 mi NW 9.2 mph 16.1 mph N/A   Clear
10:15 PM 42.8 °F 37.5 °F 30.2 °F 61% 30.05 in 10.0 mi NW 9.2 mph - N/A   Clear
10:35 PM 42.8 °F 37.5 °F 30.2 °F 61% 30.05 in 10.0 mi NW 9.2 mph - N/A   Clear
10:55 PM 42.8 °F 38.6 °F 30.2 °F 61% 30.06 in 10.0 mi WNW 6.9 mph - N/A   Clear
11:15 PM 42.8 °F 38.0 °F 30.2 °F 61% 30.06 in 10.0 mi NW 8.1 mph - N/A   Clear
11:35 PM 41.0 °F 35.8 °F 30.2 °F 65% 30.07 in 10.0 mi NW 8.1 mph - N/A   Clear
11:55 PM 41.0 °F 36.4 °F 30.2 °F 65% 30.08 in 10.0 mi NW 6.9 mph - N/A   Clear